Time;durP1;ratioP1;P1;durP2;ratioP2;P2;SDS_P1;SDS_P2;PMS_P1;PMS_P2;Temp;Humidity;BMP_temperature;BMP_pressure;BME280_temperature;BME280_humidity;BME280_pressure;Samples;Min_cycle;Max_cycle;Signal;HPM_P1;HPM_P2
2021/06/10 00:02:14;;;;;;;7.10;5.40;;;;;;;;;;5042215;28;20195;-45
2021/06/10 00:04:40;;;;;;;5.75;5.25;;;;;;;;;;5054492;28;20171;-45
2021/06/10 00:07:06;;;;;;;6.15;5.20;;;;;;;;;;5045421;28;20539;-45
2021/06/10 00:09:32;;;;;;;5.53;5.13;;;;;;;;;;5046376;28;20198;-45
2021/06/10 00:11:58;;;;;;;6.22;5.65;;;;;;;;;;5054173;28;20171;-45
2021/06/10 00:14:24;;;;;;;5.75;5.25;;;;;;;;;;5053727;28;20205;-45
2021/06/10 00:16:50;;;;;;;5.95;5.15;;;;;;;;;;5054653;28;20168;-45
2021/06/10 00:19:16;;;;;;;5.70;5.10;;;;;;;;;;5049620;28;20175;-45
2021/06/10 00:21:42;;;;;;;5.85;5.30;;;;;;;;;;5053954;28;20442;-45
2021/06/10 00:24:09;;;;;;;5.45;4.95;;;;;;;;;;5054352;28;20182;-45
2021/06/10 00:26:35;;;;;;;5.90;5.30;;;;;;;;;;5043589;28;20186;-45
2021/06/10 00:29:01;;;;;;;5.85;5.28;;;;;;;;;;5051678;28;20172;-45
2021/06/10 00:31:27;;;;;;;5.22;4.82;;;;;;;;;;5053976;28;20175;-45
2021/06/10 00:33:53;;;;;;;5.70;5.30;;;;;;;;;;5056094;28;20213;-45
2021/06/10 00:36:19;;;;;;;5.80;5.30;;;;;;;;;;5039563;28;20180;-45
2021/06/10 00:38:46;;;;;;;5.65;5.13;;;;;;;;;;5052911;28;20175;-45
2021/06/10 00:41:12;;;;;;;5.40;4.90;;;;;;;;;;5057661;28;20205;-45
2021/06/10 00:43:38;;;;;;;4.95;4.55;;;;;;;;;;5057725;28;20175;-45
2021/06/10 00:46:04;;;;;;;5.40;4.90;;;;;;;;;;5058295;28;20489;-45
2021/06/10 00:48:30;;;;;;;5.28;4.88;;;;;;;;;;5058061;28;20534;-45
2021/06/10 00:50:57;;;;;;;5.15;4.65;;;;;;;;;;5038945;28;20206;-45
2021/06/10 00:53:25;;;;;;;5.35;4.85;;;;;;;;;;5046835;28;20597;-45
2021/06/10 00:55:52;;;;;;;5.15;4.75;;;;;;;;;;5046164;28;20278;-45
2021/06/10 00:58:18;;;;;;;6.05;5.00;;;;;;;;;;5042883;28;20171;-45
2021/06/10 01:00:44;;;;;;;5.50;5.03;;;;;;;;;;5052103;28;20222;-45
2021/06/10 01:03:10;;;;;;;5.00;4.50;;;;;;;;;;5057321;28;20194;-45
2021/06/10 01:05:38;;;;;;;5.43;4.93;;;;;;;;;;5055052;28;20444;-45
2021/06/10 01:08:07;;;;;;;5.80;4.82;;;;;;;;;;5057476;28;20519;-45
2021/06/10 01:10:38;;;;;;;5.60;5.07;;;;;;;;;;5054225;28;20179;-45
2021/06/10 01:13:23;;;;;;;5.25;4.85;;;;;;;;;;5043908;28;20458;-45
2021/06/10 01:15:51;;;;;;;5.43;5.03;;;;;;;;;;5057613;28;20183;-45
2021/06/10 01:18:18;;;;;;;4.95;4.55;;;;;;;;;;5057590;28;20179;-45
2021/06/10 01:20:44;;;;;;;5.40;5.00;;;;;;;;;;5057247;28;20210;-45
2021/06/10 01:23:20;;;;;;;5.32;4.82;;;;;;;;;;5044404;28;20443;-45
2021/06/10 01:25:51;;;;;;;5.57;5.07;;;;;;;;;;5047257;28;20166;-45
2021/06/10 01:28:22;;;;;;;6.13;4.43;;;;;;;;;;5049931;28;20286;-46
2021/06/10 01:30:59;;;;;;;4.80;4.40;;;;;;;;;;5057143;28;20186;-45
2021/06/10 01:33:28;;;;;;;5.35;4.95;;;;;;;;;;5056468;28;20289;-45
2021/06/10 01:36:14;;;;;;;5.25;4.72;;;;;;;;;;5055451;28;20514;-45
2021/06/10 01:38:41;;;;;;;5.30;4.70;;;;;;;;;;5056214;28;20199;-45
2021/06/10 01:41:07;;;;;;;5.50;5.00;;;;;;;;;;5056841;28;20542;-45
2021/06/10 01:43:37;;;;;;;5.50;5.03;;;;;;;;;;5057420;28;20182;-45
2021/06/10 01:46:04;;;;;;;4.97;4.57;;;;;;;;;;5056866;28;20206;-45
2021/06/10 01:48:30;;;;;;;4.95;4.55;;;;;;;;;;5051127;28;20190;-45
2021/06/10 01:50:57;;;;;;;4.78;4.38;;;;;;;;;;5055555;28;20249;-46
2021/06/10 01:53:24;;;;;;;5.15;4.60;;;;;;;;;;5053146;28;20203;-46
2021/06/10 01:55:50;;;;;;;6.80;4.63;;;;;;;;;;5049245;28;20232;-46
2021/06/10 01:58:17;;;;;;;4.78;4.38;;;;;;;;;;5056915;28;20163;-45
2021/06/10 02:00:44;;;;;;;5.05;4.53;;;;;;;;;;5046681;28;20222;-45
2021/06/10 02:03:11;;;;;;;4.70;4.30;;;;;;;;;;5043594;28;20234;-45
2021/06/10 02:05:38;;;;;;;4.38;4.07;;;;;;;;;;5056257;28;20190;-45
2021/06/10 02:08:07;;;;;;;4.85;4.45;;;;;;;;;;5056553;28;20266;-46
2021/06/10 02:10:33;;;;;;;4.97;4.47;;;;;;;;;;5055751;28;20189;-46
2021/06/10 02:12:59;;;;;;;5.40;4.90;;;;;;;;;;5056635;28;20172;-45
2021/06/10 02:15:26;;;;;;;4.80;4.47;;;;;;;;;;5054730;28;20179;-45
2021/06/10 02:17:52;;;;;;;4.93;4.45;;;;;;;;;;5038134;28;20168;-45
2021/06/10 02:20:19;;;;;;;5.30;4.80;;;;;;;;;;5055928;28;20187;-45
2021/06/10 02:22:45;;;;;;;4.97;4.57;;;;;;;;;;5056022;28;20221;-45
2021/06/10 02:25:11;;;;;;;4.85;4.45;;;;;;;;;;5051728;28;20176;-45
2021/06/10 02:27:37;;;;;;;6.78;4.88;;;;;;;;;;5036747;28;20196;-45
2021/06/10 02:30:05;;;;;;;5.00;4.60;;;;;;;;;;5051697;28;20495;-45
2021/06/10 02:32:31;;;;;;;5.75;4.32;;;;;;;;;;5055775;28;20179;-45
2021/06/10 02:34:57;;;;;;;6.55;4.70;;;;;;;;;;5056223;28;20725;-45
2021/06/10 02:37:24;;;;;;;5.30;4.82;;;;;;;;;;5056349;28;20168;-45
2021/06/10 02:39:53;;;;;;;5.03;4.63;;;;;;;;;;5052270;28;20207;-45
2021/06/10 02:42:19;;;;;;;5.25;4.75;;;;;;;;;;5054272;28;20159;-45
2021/06/10 02:44:49;;;;;;;4.80;4.40;;;;;;;;;;5036280;28;20550;-46
2021/06/10 02:47:16;;;;;;;5.07;4.57;;;;;;;;;;5044949;28;20175;-46
2021/06/10 02:49:45;;;;;;;4.72;4.30;;;;;;;;;;5055958;28;20482;-45
2021/06/10 02:52:11;;;;;;;4.90;3.95;;;;;;;;;;5055452;28;20210;-45
2021/06/10 02:54:37;;;;;;;4.55;4.15;;;;;;;;;;5055314;28;20213;-45
2021/06/10 02:57:03;;;;;;;5.50;4.50;;;;;;;;;;5049852;28;20202;-45
2021/06/10 02:59:31;;;;;;;4.85;4.40;;;;;;;;;;5055246;28;20175;-45
2021/06/10 03:01:57;;;;;;;4.35;4.05;;;;;;;;;;5040399;28;20214;-46
2021/06/10 03:04:23;;;;;;;5.68;4.40;;;;;;;;;;5053763;28;20187;-46
2021/06/10 03:06:49;;;;;;;4.68;4.28;;;;;;;;;;5055288;28;20194;-46
2021/06/10 03:09:18;;;;;;;5.40;4.63;;;;;;;;;;5054361;28;20203;-46
2021/06/10 03:11:44;;;;;;;4.60;4.30;;;;;;;;;;5055001;28;20184;-46
2021/06/10 03:14:11;;;;;;;4.90;4.50;;;;;;;;;;5055664;28;20206;-46
2021/06/10 03:16:37;;;;;;;6.00;4.70;;;;;;;;;;5041336;28;20183;-45
2021/06/10 03:19:03;;;;;;;6.70;4.97;;;;;;;;;;5055208;28;20229;-45
2021/06/10 03:21:30;;;;;;;4.20;3.90;;;;;;;;;;5054909;28;20258;-45
2021/06/10 03:23:56;;;;;;;5.25;4.85;;;;;;;;;;5054849;28;20183;-45
2021/06/10 03:26:23;;;;;;;5.00;4.60;;;;;;;;;;5050492;28;20217;-45
2021/06/10 03:28:49;;;;;;;4.75;3.78;;;;;;;;;;5039783;28;20179;-45
2021/06/10 03:31:15;;;;;;;5.07;4.68;;;;;;;;;;5054015;28;20565;-45
2021/06/10 03:33:41;;;;;;;4.90;4.50;;;;;;;;;;5055344;28;20218;-45
2021/06/10 03:36:09;;;;;;;4.95;4.55;;;;;;;;;;5053100;28;20199;-45
2021/06/10 03:38:35;;;;;;;4.82;4.32;;;;;;;;;;5042360;28;20171;-45
2021/06/10 03:41:02;;;;;;;5.32;4.60;;;;;;;;;;5054816;28;20266;-46
2021/06/10 03:43:28;;;;;;;4.90;4.50;;;;;;;;;;5046863;28;20202;-46
2021/06/10 03:45:55;;;;;;;5.35;4.95;;;;;;;;;;5035231;28;20180;-46
2021/06/10 03:48:21;;;;;;;5.10;4.70;;;;;;;;;;5054470;28;20171;-46
2021/06/10 03:50:47;;;;;;;5.20;4.70;;;;;;;;;;5054226;28;20245;-46
2021/06/10 03:53:13;;;;;;;5.05;4.65;;;;;;;;;;5054293;28;20209;-45
2021/06/10 03:55:40;;;;;;;4.82;4.35;;;;;;;;;;5054765;28;20171;-45
2021/06/10 03:58:06;;;;;;;5.18;4.78;;;;;;;;;;5053907;28;20175;-45
2021/06/10 04:00:32;;;;;;;4.95;4.55;;;;;;;;;;5050529;28;20180;-45
2021/06/10 04:03:00;;;;;;;5.10;4.70;;;;;;;;;;5041474;28;20182;-45
2021/06/10 04:05:28;;;;;;;6.50;4.18;;;;;;;;;;5053554;28;20186;-45
2021/06/10 04:07:58;;;;;;;4.75;4.38;;;;;;;;;;5039958;28;20477;-45
2021/06/10 04:10:25;;;;;;;4.57;4.20;;;;;;;;;;5053944;28;20179;-45
2021/06/10 04:12:51;;;;;;;4.80;4.40;;;;;;;;;;5042308;28;20194;-45
2021/06/10 04:15:17;;;;;;;4.53;4.20;;;;;;;;;;5054459;28;20259;-45
2021/06/10 04:17:44;;;;;;;5.45;4.60;;;;;;;;;;5040657;28;20180;-45
2021/06/10 04:20:11;;;;;;;5.47;4.82;;;;;;;;;;5051682;28;20171;-45
2021/06/10 04:22:37;;;;;;;4.88;4.47;;;;;;;;;;5053633;28;20635;-45
2021/06/10 04:25:03;;;;;;;5.07;4.57;;;;;;;;;;5054297;28;20190;-45
2021/06/10 04:27:29;;;;;;;5.10;4.63;;;;;;;;;;5046895;28;20205;-45
2021/06/10 04:29:55;;;;;;;6.90;5.20;;;;;;;;;;5054135;28;20186;-45
2021/06/10 04:32:21;;;;;;;4.93;4.53;;;;;;;;;;5052385;28;20559;-45
2021/06/10 04:34:47;;;;;;;8.27;5.65;;;;;;;;;;5053890;28;20301;-45
2021/06/10 04:37:13;;;;;;;7.30;5.00;;;;;;;;;;5044884;28;20211;-45
2021/06/10 04:39:39;;;;;;;10.93;4.90;;;;;;;;;;5049750;28;20171;-45
2021/06/10 04:42:06;;;;;;;5.40;4.70;;;;;;;;;;5053856;28;20183;-45
2021/06/10 04:44:32;;;;;;;5.50;5.00;;;;;;;;;;5049560;28;20262;-45
2021/06/10 04:46:58;;;;;;;5.68;5.00;;;;;;;;;;5048984;28;20187;-45
2021/06/10 04:49:24;;;;;;;5.45;4.95;;;;;;;;;;5052495;28;20189;-45
2021/06/10 04:51:50;;;;;;;6.97;5.20;;;;;;;;;;5053381;28;20272;-45
2021/06/10 04:54:16;;;;;;;5.47;4.97;;;;;;;;;;5053547;28;20213;-45
2021/06/10 04:56:42;;;;;;;5.05;4.65;;;;;;;;;;5052794;28;20253;-45
2021/06/10 04:59:08;;;;;;;5.47;5.00;;;;;;;;;;5053646;28;20179;-46
2021/06/10 05:01:34;;;;;;;6.05;5.45;;;;;;;;;;5042284;28;20266;-46
2021/06/10 05:04:00;;;;;;;5.53;5.03;;;;;;;;;;5053529;28;20206;-46
2021/06/10 05:06:26;;;;;;;5.28;4.75;;;;;;;;;;5052683;28;20172;-46
2021/06/10 05:08:52;;;;;;;6.47;5.15;;;;;;;;;;5046633;28;20187;-45
2021/06/10 05:11:18;;;;;;;9.95;5.18;;;;;;;;;;5053001;28;20187;-45
2021/06/10 05:13:44;;;;;;;5.75;5.25;;;;;;;;;;5053857;28;20199;-45
2021/06/10 05:16:11;;;;;;;9.80;5.63;;;;;;;;;;5053274;28;20258;-45
2021/06/10 05:18:37;;;;;;;5.32;4.88;;;;;;;;;;5053049;28;20259;-45
2021/06/10 05:21:03;;;;;;;5.72;5.00;;;;;;;;;;5049905;28;20259;-45
2021/06/10 05:23:29;;;;;;;6.43;5.32;;;;;;;;;;5053295;28;20821;-45
2021/06/10 05:25:55;;;;;;;7.22;5.72;;;;;;;;;;5046828;28;20270;-45
2021/06/10 05:28:21;;;;;;;5.97;5.10;;;;;;;;;;5052169;28;20504;-45
2021/06/10 05:30:47;;;;;;;5.85;5.25;;;;;;;;;;5057169;28;20177;-45
2021/06/10 05:33:13;;;;;;;6.20;5.10;;;;;;;;;;5054796;28;20186;-45
2021/06/10 05:35:39;;;;;;;5.40;4.90;;;;;;;;;;5047309;28;20183;-45
2021/06/10 05:38:05;;;;;;;6.82;5.07;;;;;;;;;;5053901;28;20194;-45
2021/06/10 05:40:31;;;;;;;5.45;4.80;;;;;;;;;;5044109;28;20207;-45
2021/06/10 05:42:57;;;;;;;5.70;5.20;;;;;;;;;;5048872;28;20175;-45
2021/06/10 05:45:23;;;;;;;5.75;5.13;;;;;;;;;;5056101;28;20194;-46
2021/06/10 05:47:50;;;;;;;6.38;4.75;;;;;;;;;;5056866;28;20550;-46
2021/06/10 05:50:16;;;;;;;5.70;5.20;;;;;;;;;;5056932;28;20198;-46
2021/06/10 05:52:43;;;;;;;5.65;5.15;;;;;;;;;;5055998;28;20175;-45
2021/06/10 05:55:10;;;;;;;6.55;5.20;;;;;;;;;;5040195;28;20213;-45
2021/06/10 05:57:36;;;;;;;5.97;5.03;;;;;;;;;;5037181;28;20174;-45
2021/06/10 06:00:03;;;;;;;5.70;5.10;;;;;;;;;;5056936;28;20245;-45
2021/06/10 06:02:29;;;;;;;5.57;5.07;;;;;;;;;;5050542;28;20179;-45
2021/06/10 06:04:55;;;;;;;8.70;5.35;;;;;;;;;;5055480;28;20193;-45
2021/06/10 06:07:21;;;;;;;6.57;5.30;;;;;;;;;;5056808;28;20197;-45
2021/06/10 06:09:47;;;;;;;5.85;5.35;;;;;;;;;;5056017;28;20430;-45
2021/06/10 06:12:15;;;;;;;57.33;15.35;;;;;;;;;;5054789;28;20266;-45
2021/06/10 06:14:43;;;;;;;51.22;14.57;;;;;;;;;;5051932;28;20196;-45
2021/06/10 06:17:11;;;;;;;69.43;17.92;;;;;;;;;;5052135;28;20205;-45
2021/06/10 06:19:37;;;;;;;77.53;20.08;;;;;;;;;;5047476;28;20184;-45
2021/06/10 06:22:04;;;;;;;142.38;32.67;;;;;;;;;;5051088;28;20259;-45
2021/06/10 06:24:31;;;;;;;108.65;23.67;;;;;;;;;;5051615;28;20175;-45
2021/06/10 06:26:57;;;;;;;42.58;13.23;;;;;;;;;;5056752;28;20171;-45
2021/06/10 06:29:24;;;;;;;43.45;14.63;;;;;;;;;;5040923;28;20511;-45
2021/06/10 06:31:50;;;;;;;24.98;12.40;;;;;;;;;;5037634;28;20214;-45
2021/06/10 06:34:16;;;;;;;26.45;12.65;;;;;;;;;;5055364;28;20525;-45
2021/06/10 06:36:42;;;;;;;29.20;11.55;;;;;;;;;;5056014;28;20171;-45
2021/06/10 06:39:08;;;;;;;28.75;12.13;;;;;;;;;;5056065;28;20172;-45
2021/06/10 06:41:35;;;;;;;26.02;12.05;;;;;;;;;;5055092;28;20186;-45
2021/06/10 06:44:02;;;;;;;26.83;11.35;;;;;;;;;;5052525;28;20206;-45
2021/06/10 06:46:28;;;;;;;26.40;10.85;;;;;;;;;;5053015;28;20228;-45
2021/06/10 06:48:54;;;;;;;25.40;10.93;;;;;;;;;;5056231;28;20231;-45
2021/06/10 06:51:20;;;;;;;26.92;11.80;;;;;;;;;;5055405;28;20302;-45
2021/06/10 06:53:46;;;;;;;24.92;11.23;;;;;;;;;;5053844;28;20217;-45
2021/06/10 06:56:13;;;;;;;23.38;10.77;;;;;;;;;;5055978;28;20210;-45
2021/06/10 06:58:39;;;;;;;20.27;9.98;;;;;;;;;;5055703;28;20202;-45
2021/06/10 07:01:05;;;;;;;14.93;9.75;;;;;;;;;;5051311;28;20210;-45
2021/06/10 07:03:31;;;;;;;14.35;10.02;;;;;;;;;;5055390;28;20547;-45
2021/06/10 07:05:57;;;;;;;14.73;9.23;;;;;;;;;;5055344;28;20305;-46
2021/06/10 07:08:23;;;;;;;16.50;9.80;;;;;;;;;;5055723;28;20202;-45
2021/06/10 07:10:55;;;;;;;15.70;9.80;;;;;;;;;;5055371;28;20439;-45
2021/06/10 07:13:22;;;;;;;10.88;8.60;;;;;;;;;;5040777;28;20286;-45
2021/06/10 07:15:48;;;;;;;13.32;9.07;;;;;;;;;;5050008;28;20186;-45
2021/06/10 07:18:14;;;;;;;10.98;7.97;;;;;;;;;;5055446;28;20197;-45
2021/06/10 07:20:40;;;;;;;11.40;9.20;;;;;;;;;;5055246;28;20187;-45
2021/06/10 07:23:06;;;;;;;11.07;9.88;;;;;;;;;;5054395;28;20270;-45
2021/06/10 07:25:32;;;;;;;11.98;8.95;;;;;;;;;;5055146;28;20183;-45
2021/06/10 07:27:58;;;;;;;10.60;8.57;;;;;;;;;;5055225;28;20594;-45
2021/06/10 07:30:24;;;;;;;12.10;7.47;;;;;;;;;;5055134;28;20183;-45
2021/06/10 07:32:50;;;;;;;10.88;9.77;;;;;;;;;;5047334;28;20264;-45
2021/06/10 07:35:21;;;;;;;9.93;8.27;;;;;;;;;;5054165;28;20207;-45
2021/06/10 07:37:48;;;;;;;9.45;8.13;;;;;;;;;;5055099;28;20187;-45
2021/06/10 07:40:14;;;;;;;8.02;7.32;;;;;;;;;;5054996;28;20411;-45
2021/06/10 07:42:40;;;;;;;8.10;7.30;;;;;;;;;;5054295;28;20167;-46
2021/06/10 07:45:06;;;;;;;8.65;7.78;;;;;;;;;;5049792;28;20227;-45
2021/06/10 07:47:32;;;;;;;10.63;7.65;;;;;;;;;;5054486;28;20163;-45
2021/06/10 07:49:58;;;;;;;8.65;7.70;;;;;;;;;;5054048;28;20505;-45
2021/06/10 07:52:24;;;;;;;9.15;7.72;;;;;;;;;;5053866;28;20233;-45
2021/06/10 07:54:50;;;;;;;8.82;7.93;;;;;;;;;;5053462;28;20203;-45
2021/06/10 07:57:16;;;;;;;8.85;7.95;;;;;;;;;;5054785;28;20167;-45
2021/06/10 07:59:42;;;;;;;9.15;7.57;;;;;;;;;;5054680;28;20183;-45
2021/06/10 08:02:08;;;;;;;8.57;7.57;;;;;;;;;;5037596;28;20183;-45
2021/06/10 08:04:34;;;;;;;9.18;7.65;;;;;;;;;;5041070;28;20207;-45
2021/06/10 08:07:00;;;;;;;11.65;7.68;;;;;;;;;;5054403;28;20261;-46
2021/06/10 08:09:26;;;;;;;8.20;7.15;;;;;;;;;;5054080;28;20290;-46
2021/06/10 08:11:53;;;;;;;9.95;7.68;;;;;;;;;;5053809;28;20213;-45
2021/06/10 08:14:19;;;;;;;8.43;7.50;;;;;;;;;;5050230;28;20191;-45
2021/06/10 08:16:45;;;;;;;10.07;7.60;;;;;;;;;;5054499;28;20236;-45
2021/06/10 08:19:11;;;;;;;8.32;7.32;;;;;;;;;;5054365;28;20542;-45
2021/06/10 08:21:37;;;;;;;9.43;8.05;;;;;;;;;;5053984;28;20182;-45
2021/06/10 08:24:03;;;;;;;8.30;7.50;;;;;;;;;;5050897;28;20249;-45
2021/06/10 08:26:29;;;;;;;7.55;6.85;;;;;;;;;;5054300;28;20183;-45
2021/06/10 08:28:55;;;;;;;9.30;8.50;;;;;;;;;;5054640;28;20550;-45
2021/06/10 08:31:21;;;;;;;10.20;8.45;;;;;;;;;;5053618;28;20186;-45
2021/06/10 08:33:48;;;;;;;9.65;7.85;;;;;;;;;;5041060;28;20475;-45
2021/06/10 08:36:18;;;;;;;9.07;7.65;;;;;;;;;;5051351;28;20207;-45
2021/06/10 08:38:44;;;;;;;7.97;7.28;;;;;;;;;;5053795;28;20210;-45
2021/06/10 08:41:11;;;;;;;10.15;6.93;;;;;;;;;;5053751;28;20189;-45
2021/06/10 08:43:38;;;;;;;7.70;7.00;;;;;;;;;;5052889;28;20179;-45
2021/06/10 08:46:05;;;;;;;7.88;7.07;;;;;;;;;;5053412;28;20189;-45
2021/06/10 08:48:34;;;;;;;8.18;7.38;;;;;;;;;;5053580;28;20217;-45
2021/06/10 08:51:01;;;;;;;7.68;6.97;;;;;;;;;;5053153;28;20222;-45
2021/06/10 08:53:27;;;;;;;7.28;6.57;;;;;;;;;;5052986;28;20218;-45
2021/06/10 08:55:57;;;;;;;7.28;6.57;;;;;;;;;;5057400;28;20212;-45
2021/06/10 08:58:23;;;;;;;7.70;6.90;;;;;;;;;;5058133;28;20171;-46
2021/06/10 09:00:50;;;;;;;7.25;6.65;;;;;;;;;;5051895;28;20175;-45
2021/06/10 09:03:22;;;;;;;8.00;6.53;;;;;;;;;;5045190;28;20626;-45
2021/06/10 09:06:07;;;;;;;7.18;6.50;;;;;;;;;;5056968;28;20187;-45
2021/06/10 09:08:34;;;;;;;7.47;6.78;;;;;;;;;;5057541;28;20253;-45
2021/06/10 09:11:03;;;;;;;7.55;6.85;;;;;;;;;;5056358;28;20194;-45
2021/06/10 09:13:38;;;;;;;7.55;6.90;;;;;;;;;;5057349;28;20209;-45
2021/06/10 09:16:17;;;;;;;8.85;6.65;;;;;;;;;;5057463;28;20206;-46
2021/06/10 09:18:53;;;;;;;7.18;6.57;;;;;;;;;;5058054;28;20202;-46
2021/06/10 09:21:25;;;;;;;6.95;6.07;;;;;;;;;;5056273;28;20179;-45
2021/06/10 09:23:51;;;;;;;8.50;7.80;;;;;;;;;;5057501;28;20266;-45
2021/06/10 09:26:17;;;;;;;8.27;7.35;;;;;;;;;;5057598;28;20214;-45
2021/06/10 09:28:45;;;;;;;7.43;6.72;;;;;;;;;;5057395;28;20577;-45
2021/06/10 09:31:11;;;;;;;7.13;6.53;;;;;;;;;;5056580;28;20473;-45
2021/06/10 09:33:39;;;;;;;6.97;6.28;;;;;;;;;;5057456;28;20195;-46
2021/06/10 09:36:05;;;;;;;6.70;6.10;;;;;;;;;;5057422;28;20181;-45
2021/06/10 09:38:31;;;;;;;6.72;6.13;;;;;;;;;;5057356;28;20226;-45
2021/06/10 09:41:05;;;;;;;6.65;6.05;;;;;;;;;;5056076;28;20253;-45
2021/06/10 09:43:44;;;;;;;6.57;5.97;;;;;;;;;;5045010;28;20187;-45
2021/06/10 09:46:10;;;;;;;6.35;5.63;;;;;;;;;;5057358;28;20184;-45
2021/06/10 09:48:36;;;;;;;6.90;6.30;;;;;;;;;;5057194;28;20566;-46
2021/06/10 09:51:02;;;;;;;6.40;5.80;;;;;;;;;;5056339;28;20269;-46
2021/06/10 09:53:29;;;;;;;7.70;6.10;;;;;;;;;;5056630;28;20270;-45
2021/06/10 09:55:58;;;;;;;6.55;5.95;;;;;;;;;;5056790;28;20554;-45
2021/06/10 09:58:30;;;;;;;6.60;6.00;;;;;;;;;;5057142;28;20538;-45
2021/06/10 10:00:57;;;;;;;6.95;5.45;;;;;;;;;;5049173;28;20266;-45
2021/06/10 10:03:28;;;;;;;5.97;5.47;;;;;;;;;;5043526;28;20171;-45
2021/06/10 10:06:03;;;;;;;5.40;5.00;;;;;;;;;;5052560;28;20175;-45
2021/06/10 10:08:30;;;;;;;5.90;5.40;;;;;;;;;;5049251;28;20278;-45
2021/06/10 10:10:57;;;;;;;6.00;5.50;;;;;;;;;;5053755;28;20179;-45
2021/06/10 10:13:24;;;;;;;5.88;5.32;;;;;;;;;;5055620;28;20175;-45
2021/06/10 10:15:50;;;;;;;7.85;5.78;;;;;;;;;;5049177;28;20183;-46
2021/06/10 10:18:18;;;;;;;6.82;5.57;;;;;;;;;;5050930;28;20190;-45
2021/06/10 10:20:44;;;;;;;8.23;6.00;;;;;;;;;;5054010;28;20183;-45
2021/06/10 10:23:11;;;;;;;11.35;6.10;;;;;;;;;;5054903;28;20175;-46
2021/06/10 10:25:37;;;;;;;8.93;6.25;;;;;;;;;;5055692;28;20179;-45
2021/06/10 10:28:07;;;;;;;7.80;5.63;;;;;;;;;;5044427;28;20187;-45
2021/06/10 10:30:33;;;;;;;7.72;5.55;;;;;;;;;;5049743;28;20171;-45
2021/06/10 10:33:13;;;;;;;7.90;5.82;;;;;;;;;;5037458;28;20559;-45
2021/06/10 10:35:46;;;;;;;8.55;5.85;;;;;;;;;;5053649;28;20240;-45
2021/06/10 10:38:13;;;;;;;7.32;5.50;;;;;;;;;;5050695;28;20187;-45
2021/06/10 10:40:44;;;;;;;6.18;5.45;;;;;;;;;;5034867;28;20211;-45
2021/06/10 10:43:12;;;;;;;7.07;5.38;;;;;;;;;;5043443;28;20183;-45
2021/06/10 10:45:43;;;;;;;9.93;4.82;;;;;;;;;;5037360;28;20178;-45
2021/06/10 10:48:10;;;;;;;8.82;5.13;;;;;;;;;;5049926;28;20233;-45
2021/06/10 10:50:47;;;;;;;6.45;5.10;;;;;;;;;;5052847;28;20277;-45
2021/06/10 10:53:26;;;;;;;8.18;5.32;;;;;;;;;;5053699;28;20178;-45
2021/06/10 10:56:04;;;;;;;6.93;5.38;;;;;;;;;;5054051;28;20205;-45
2021/06/10 10:58:30;;;;;;;7.68;5.15;;;;;;;;;;5044817;28;20182;-45
2021/06/10 11:00:58;;;;;;;6.10;5.28;;;;;;;;;;5048951;28;20176;-46
2021/06/10 11:03:24;;;;;;;7.70;5.30;;;;;;;;;;5046782;28;20336;-45
2021/06/10 11:05:50;;;;;;;11.63;5.35;;;;;;;;;;5054044;28;20185;-46
2021/06/10 11:08:16;;;;;;;17.60;5.53;;;;;;;;;;5044721;28;20592;-45
2021/06/10 11:10:52;;;;;;;11.57;6.13;;;;;;;;;;5051802;28;20266;-46
2021/06/10 11:13:41;;;;;;;10.60;6.10;;;;;;;;;;5043893;28;20173;-45
2021/06/10 11:16:07;;;;;;;9.52;5.50;;;;;;;;;;5042831;28;20184;-45
2021/06/10 11:18:44;;;;;;;8.93;6.18;;;;;;;;;;5041067;28;20186;-45
2021/06/10 11:21:11;;;;;;;9.52;5.22;;;;;;;;;;5045581;28;20179;-45
2021/06/10 11:23:37;;;;;;;7.20;5.70;;;;;;;;;;5047446;28;20544;-45
2021/06/10 11:26:04;;;;;;;8.93;5.32;;;;;;;;;;5035601;28;20167;-46
2021/06/10 11:28:36;;;;;;;12.30;5.43;;;;;;;;;;5040421;28;20175;-45
2021/06/10 11:31:16;;;;;;;10.50;5.30;;;;;;;;;;5051196;28;20182;-45
2021/06/10 11:33:42;;;;;;;10.00;5.43;;;;;;;;;;5045930;28;20604;-45
2021/06/10 11:36:12;;;;;;;5.90;4.90;;;;;;;;;;5055399;28;20538;-45
2021/06/10 11:38:39;;;;;;;9.75;5.40;;;;;;;;;;5041021;28;20187;-45
2021/06/10 11:41:12;;;;;;;7.20;4.97;;;;;;;;;;5034796;28;20172;-45
2021/06/10 11:43:40;;;;;;;5.82;4.80;;;;;;;;;;5047828;28;20175;-45
2021/06/10 11:46:07;;;;;;;6.45;4.80;;;;;;;;;;5075006;28;20236;-45
2021/06/10 11:48:36;;;;;;;8.40;5.45;;;;;;;;;;5062654;28;20282;-45
2021/06/10 11:51:02;;;;;;;6.18;5.28;;;;;;;;;;5044624;28;20237;-45
2021/06/10 11:53:29;;;;;;;5.75;5.15;;;;;;;;;;5054484;28;20179;-45
2021/06/10 11:55:57;;;;;;;5.88;4.80;;;;;;;;;;5061786;28;20185;-45
2021/06/10 11:58:25;;;;;;;7.47;5.38;;;;;;;;;;5069349;28;20605;-46
2021/06/10 12:00:51;;;;;;;5.18;4.75;;;;;;;;;;5048421;28;20283;-46
2021/06/10 12:03:17;;;;;;;5.07;4.68;;;;;;;;;;5046851;28;20297;-45
2021/06/10 12:05:47;;;;;;;6.80;5.22;;;;;;;;;;5054600;28;20179;-45
2021/06/10 12:08:15;;;;;;;5.05;4.55;;;;;;;;;;5053672;28;20173;-45
2021/06/10 12:10:41;;;;;;;5.25;4.85;;;;;;;;;;5046615;28;20171;-45
2021/06/10 12:13:08;;;;;;;5.55;4.68;;;;;;;;;;5034477;28;20179;-45
2021/06/10 12:15:36;;;;;;;5.88;4.80;;;;;;;;;;5049090;28;20199;-45
2021/06/10 12:18:05;;;;;;;5.97;4.90;;;;;;;;;;5042637;28;20183;-45
2021/06/10 12:20:32;;;;;;;7.50;5.03;;;;;;;;;;5052704;28;20179;-45
2021/06/10 12:22:59;;;;;;;5.20;4.80;;;;;;;;;;5050364;28;20463;-45
2021/06/10 12:25:26;;;;;;;5.05;4.65;;;;;;;;;;5065106;28;20190;-45
2021/06/10 12:27:57;;;;;;;5.82;4.13;;;;;;;;;;5060512;28;20244;-45
2021/06/10 12:30:37;;;;;;;4.55;4.25;;;;;;;;;;5063636;28;20229;-45
2021/06/10 12:33:10;;;;;;;5.20;4.70;;;;;;;;;;5054448;28;20492;-45
2021/06/10 12:35:37;;;;;;;5.05;4.55;;;;;;;;;;5053777;28;20199;-45
2021/06/10 12:38:03;;;;;;;4.78;4.30;;;;;;;;;;5041705;28;20200;-45
2021/06/10 12:40:37;;;;;;;4.68;4.25;;;;;;;;;;5053489;28;20629;-45
2021/06/10 12:43:13;;;;;;;5.57;4.28;;;;;;;;;;5054391;28;20163;-45
2021/06/10 12:45:39;;;;;;;4.43;4.13;;;;;;;;;;5052904;28;20199;-45
2021/06/10 12:48:21;;;;;;;7.80;4.53;;;;;;;;;;5044390;28;20190;-45
2021/06/10 12:50:47;;;;;;;6.07;4.28;;;;;;;;;;5033688;28;20207;-45
2021/06/10 12:53:16;;;;;;;8.57;4.57;;;;;;;;;;5048925;28;20209;-45
2021/06/10 12:55:43;;;;;;;6.75;4.57;;;;;;;;;;5053530;28;20179;-45
2021/06/10 12:58:13;;;;;;;5.45;4.47;;;;;;;;;;5052693;28;20171;-45
2021/06/10 13:00:39;;;;;;;5.28;4.20;;;;;;;;;;5048398;28;20230;-45
2021/06/10 13:03:08;;;;;;;5.75;4.30;;;;;;;;;;5050800;28;20183;-45
2021/06/10 13:05:35;;;;;;;4.50;4.20;;;;;;;;;;5053829;28;20582;-45
2021/06/10 13:08:02;;;;;;;5.22;4.60;;;;;;;;;;5043277;28;20180;-45
2021/06/10 13:10:31;;;;;;;5.60;4.85;;;;;;;;;;5053711;28;20201;-45
2021/06/10 13:12:58;;;;;;;5.93;5.32;;;;;;;;;;5052356;28;20191;-45
2021/06/10 13:15:24;;;;;;;5.68;5.07;;;;;;;;;;5053132;28;20237;-45
2021/06/10 13:17:50;;;;;;;6.47;4.65;;;;;;;;;;5050450;28;20179;-45
2021/06/10 13:20:36;;;;;;;4.90;4.25;;;;;;;;;;5053603;28;20590;-45
2021/06/10 13:23:03;;;;;;;5.57;4.63;;;;;;;;;;5053451;28;20489;-45
2021/06/10 13:25:29;;;;;;;6.65;4.85;;;;;;;;;;5052597;28;20357;-46
2021/06/10 13:28:07;;;;;;;7.28;4.35;;;;;;;;;;5050529;28;20578;-46
2021/06/10 13:30:33;;;;;;;11.43;4.95;;;;;;;;;;5052705;28;20193;-46
2021/06/10 13:33:00;;;;;;;5.22;4.72;;;;;;;;;;5053706;28;20254;-46
2021/06/10 13:35:26;;;;;;;6.15;5.18;;;;;;;;;;5050311;28;20203;-46
2021/06/10 13:37:52;;;;;;;7.78;4.97;;;;;;;;;;5048339;28;20191;-45
2021/06/10 13:40:18;;;;;;;5.95;5.07;;;;;;;;;;5051856;28;20179;-46
2021/06/10 13:42:50;;;;;;;9.10;5.28;;;;;;;;;;5037132;28;20427;-46
2021/06/10 13:45:17;;;;;;;6.30;4.60;;;;;;;;;;5050921;28;20234;-46
2021/06/10 13:47:43;;;;;;;4.28;3.88;;;;;;;;;;5057121;28;20178;-46
2021/06/10 13:50:09;;;;;;;4.72;4.13;;;;;;;;;;5057217;28;20183;-46
2021/06/10 13:52:35;;;;;;;5.47;3.50;;;;;;;;;;5048930;28;20183;-46
2021/06/10 13:55:03;;;;;;;6.63;4.10;;;;;;;;;;5055437;28;20467;-47
2021/06/10 13:57:29;;;;;;;4.35;3.75;;;;;;;;;;5037026;28;20183;-48
2021/06/10 13:59:55;;;;;;;7.40;3.72;;;;;;;;;;5044556;28;20180;-48
2021/06/10 14:02:21;;;;;;;7.10;4.25;;;;;;;;;;5053622;28;20179;-48
2021/06/10 14:04:48;;;;;;;5.47;3.00;;;;;;;;;;5056489;28;20322;-47
2021/06/10 14:07:14;;;;;;;3.55;3.25;;;;;;;;;;5056575;28;20186;-48
2021/06/10 14:09:41;;;;;;;4.32;3.17;;;;;;;;;;5053174;28;20175;-48
2021/06/10 14:12:07;;;;;;;4.47;3.00;;;;;;;;;;5038828;28;20190;-48
2021/06/10 14:14:34;;;;;;;4.78;3.10;;;;;;;;;;5048996;28;20605;-48
2021/06/10 14:17:00;;;;;;;3.00;2.70;;;;;;;;;;5055140;28;20203;-48
2021/06/10 14:19:26;;;;;;;3.35;3.05;;;;;;;;;;5056776;28;20241;-47
2021/06/10 14:21:52;;;;;;;3.17;2.88;;;;;;;;;;5041417;28;20187;-48
2021/06/10 14:24:18;;;;;;;3.92;3.03;;;;;;;;;;5049635;28;20175;-47
2021/06/10 14:26:44;;;;;;;3.63;2.83;;;;;;;;;;5056418;28;20632;-47
2021/06/10 14:29:27;;;;;;;4.82;3.30;;;;;;;;;;5052401;28;20207;-47
2021/06/10 14:34:37;;;;;;;3.67;3.38;;;;;;;;;;5056205;28;20255;-47
2021/06/10 14:37:03;;;;;;;3.80;3.40;;;;;;;;;;5056857;28;20558;-47
2021/06/10 14:39:29;;;;;;;3.67;2.92;;;;;;;;;;5058607;28;20163;-47
2021/06/10 14:41:56;;;;;;;23.45;3.50;;;;;;;;;;5058429;28;20517;-47
2021/06/10 14:44:22;;;;;;;3.65;3.30;;;;;;;;;;5058228;28;20173;-47
2021/06/10 14:46:48;;;;;;;3.15;2.90;;;;;;;;;;5058479;28;20175;-47